Time;durP1;ratioP1;P1;durP2;ratioP2;P2;SDS_P1;SDS_P2;PMS_P1;PMS_P2;Temp;Humidity;BMP_temperature;BMP_pressure;BME280_temperature;BME280_humidity;BME280_pressure;Samples;Min_cycle;Max_cycle;Signal;HPM_P1;HPM_P2
2022/06/29 00:00:27;;;;;;;4.97;3.17;;;;;;;24.86;59.27;99779.00;4406740;32;34603;-71
2022/06/29 00:02:55;;;;;;;5.30;3.50;;;;;;;24.94;58.87;99783.62;4392211;32;34266;-70
2022/06/29 00:05:24;;;;;;;4.20;3.35;;;;;;;24.80;59.06;99783.16;4393043;32;33754;-70
2022/06/29 00:07:54;;;;;;;4.32;3.20;;;;;;;24.71;59.58;99777.69;4406368;32;35191;-70
2022/06/29 00:10:22;;;;;;;4.40;3.37;;;;;;;24.60;59.91;99779.28;4405906;32;34718;-70
2022/06/29 00:12:50;;;;;;;5.12;3.17;;;;;;;24.48;60.56;99763.41;4406399;32;34353;-70
2022/06/29 00:15:18;;;;;;;4.97;3.35;;;;;;;24.43;60.65;99774.69;4405686;32;34903;-71
2022/06/29 00:17:46;;;;;;;4.75;2.80;;;;;;;24.66;59.68;99771.53;4406586;32;34230;-70
2022/06/29 00:20:14;;;;;;;4.95;2.92;;;;;;;24.67;59.29;99770.41;4406579;32;34080;-70
2022/06/29 00:22:42;;;;;;;4.35;2.95;;;;;;;24.70;59.08;99764.16;4406366;32;34241;-70
2022/06/29 00:25:10;;;;;;;4.85;3.00;;;;;;;24.60;59.40;99765.41;4406355;32;33871;-71
2022/06/29 00:27:39;;;;;;;5.15;3.55;;;;;;;24.63;59.38;99769.47;4406399;32;34162;-71
2022/06/29 00:30:07;;;;;;;3.75;3.10;;;;;;;24.54;59.13;99766.78;4404749;32;34748;-71
2022/06/29 00:32:35;;;;;;;4.60;3.00;;;;;;;24.20;60.32;99757.63;4392644;32;33657;-71
2022/06/29 00:35:08;;;;;;;4.17;3.10;;;;;;;24.23;60.10;99761.66;4416947;32;34119;-70
2022/06/29 00:37:36;;;;;;;4.68;2.90;;;;;;;24.09;60.47;99748.91;4406216;32;35261;-70
2022/06/29 00:40:05;;;;;;;4.85;3.40;;;;;;;24.04;60.66;99749.13;4405766;32;34017;-70
2022/06/29 00:42:33;;;;;;;4.25;3.33;;;;;;;23.96;60.95;99741.69;4405679;32;33302;-73
2022/06/29 00:45:01;;;;;;;4.55;3.03;;;;;;;24.34;60.08;99737.91;4405366;32;33926;-70
2022/06/29 00:47:28;;;;;;;3.67;2.95;;;;;;;24.43;59.68;99738.62;4406298;32;33862;-70
2022/06/29 00:49:56;;;;;;;4.55;3.20;;;;;;;24.49;59.41;99744.78;4405753;32;34062;-70
2022/06/29 00:52:25;;;;;;;5.22;3.60;;;;;;;24.12;60.48;99739.91;4407116;32;33616;-70
2022/06/29 00:54:55;;;;;;;4.62;3.40;;;;;;;24.24;60.24;99741.13;4407793;32;33886;-70
2022/06/29 00:57:26;;;;;;;3.72;3.00;;;;;;;24.09;60.74;99737.00;4407636;32;35049;-69
2022/06/29 00:59:56;;;;;;;3.83;3.12;;;;;;;24.07;60.86;99731.81;4407014;32;34716;-70
2022/06/29 01:02:26;;;;;;;4.10;3.20;;;;;;;23.84;61.67;99731.34;4408081;32;34329;-70
2022/06/29 01:04:53;;;;;;;4.07;3.05;;;;;;;23.95;61.28;99740.88;4408006;32;33946;-70
2022/06/29 01:07:26;;;;;;;5.10;3.50;;;;;;;24.18;60.73;99732.19;4408305;32;34366;-70
2022/06/29 01:09:53;;;;;;;3.60;3.10;;;;;;;24.13;60.87;99733.22;4407900;32;33613;-71
2022/06/29 01:12:22;;;;;;;3.90;3.12;;;;;;;24.20;60.55;99738.22;4419109;32;34289;-70
2022/06/29 01:14:50;;;;;;;4.30;3.45;;;;;;;24.06;60.95;99732.97;4407290;32;33986;-70
2022/06/29 01:17:19;;;;;;;5.50;3.30;;;;;;;23.84;61.75;99739.66;4407031;32;35041;-70
2022/06/29 01:19:47;;;;;;;4.20;3.28;;;;;;;23.82;61.93;99741.13;4407147;32;34211;-70
2022/06/29 01:22:20;;;;;;;4.90;3.08;;;;;;;23.91;61.69;99741.91;4407805;32;33770;-69
2022/06/29 01:24:48;;;;;;;5.00;3.47;;;;;;;23.98;61.54;99741.34;4407242;32;33827;-70
2022/06/29 01:27:17;;;;;;;4.85;3.35;;;;;;;24.00;61.36;99742.63;4408205;32;34317;-70
2022/06/29 01:29:45;;;;;;;4.95;3.60;;;;;;;23.67;62.53;99745.28;4407689;32;33682;-70
2022/06/29 01:32:12;;;;;;;5.55;3.55;;;;;;;23.61;62.77;99736.38;4407645;32;33519;-69
2022/06/29 01:34:41;;;;;;;4.25;3.33;;;;;;;23.72;62.48;99731.25;4406997;32;33946;-71
2022/06/29 01:37:09;;;;;;;5.57;3.35;;;;;;;23.68;62.65;99730.31;4407474;32;33909;-70
2022/06/29 01:39:37;;;;;;;5.70;3.75;;;;;;;23.47;63.29;99725.53;4406894;32;34634;-71
2022/06/29 01:42:05;;;;;;;4.68;3.33;;;;;;;23.31;63.80;99728.09;4407808;32;33489;-74
2022/06/29 01:44:34;;;;;;;5.55;3.53;;;;;;;23.35;63.64;99728.25;4407897;32;33843;-70
2022/06/29 01:47:02;;;;;;;4.28;3.30;;;;;;;23.51;63.06;99725.69;4407582;32;34116;-71
2022/06/29 01:49:30;;;;;;;5.62;3.20;;;;;;;23.43;63.35;99712.72;4407449;32;33897;-76
2022/06/29 01:51:58;;;;;;;4.57;3.25;;;;;;;23.59;62.66;99716.53;4407826;32;33993;-70
2022/06/29 01:54:26;;;;;;;4.32;3.50;;;;;;;23.51;62.82;99715.44;4406831;32;33873;-70
2022/06/29 01:56:53;;;;;;;5.10;3.25;;;;;;;23.59;62.50;99713.75;4408006;32;34222;-70
2022/06/29 01:59:20;;;;;;;4.32;3.20;;;;;;;23.68;62.10;99714.50;4407491;32;34006;-70
2022/06/29 02:01:48;;;;;;;4.30;3.37;;;;;;;23.67;62.10;99707.34;4407288;32;34508;-69
2022/06/29 02:04:17;;;;;;;5.03;3.40;;;;;;;23.71;62.01;99713.84;4407566;32;33979;-70
2022/06/29 02:06:44;;;;;;;4.35;3.25;;;;;;;23.49;62.86;99719.69;4407340;32;33807;-70
2022/06/29 02:09:12;;;;;;;4.28;3.45;;;;;;;23.61;62.39;99713.44;4407439;32;34010;-70
2022/06/29 02:11:40;;;;;;;5.60;3.67;;;;;;;23.61;62.40;99711.47;4407011;32;33925;-70
2022/06/29 02:14:08;;;;;;;4.57;3.47;;;;;;;23.57;62.62;99712.47;4407537;32;33991;-70
2022/06/29 02:16:35;;;;;;;5.50;3.30;;;;;;;23.32;63.42;99701.22;4407552;32;34355;-71
2022/06/29 02:19:03;;;;;;;4.05;3.50;;;;;;;23.12;64.15;99705.56;4407268;32;33995;-70
2022/06/29 02:21:31;;;;;;;4.95;3.50;;;;;;;23.41;63.16;99703.94;4407323;32;33844;-70
2022/06/29 02:23:58;;;;;;;4.25;3.12;;;;;;;23.35;63.26;99706.09;4407729;32;33937;-69
2022/06/29 02:26:26;;;;;;;4.45;3.33;;;;;;;22.69;65.48;99704.59;4407127;32;35079;-70
2022/06/29 02:28:54;;;;;;;4.70;3.42;;;;;;;22.84;64.93;99699.66;4407094;32;34156;-70
2022/06/29 02:36:54;;;;;;;5.60;4.00;;;;;;;22.96;64.53;99701.72;4407560;32;35107;-70
2022/06/29 02:39:22;;;;;;;5.00;3.70;;;;;;;22.48;66.65;99714.75;4406909;32;34066;-70
2022/06/29 02:41:49;;;;;;;4.60;3.20;;;;;;;22.77;65.51;99699.38;4406895;32;33058;-70
2022/06/29 02:44:16;;;;;;;4.72;3.40;;;;;;;23.03;64.46;99705.63;4407494;32;34766;-70
2022/06/29 02:46:44;;;;;;;5.18;3.78;;;;;;;23.28;63.52;99703.03;4407085;32;34212;-70
2022/06/29 02:49:12;;;;;;;4.78;3.30;;;;;;;23.40;63.33;99703.13;4407428;32;34050;-70
2022/06/29 02:51:39;;;;;;;3.97;3.50;;;;;;;23.06;64.26;99706.91;4407169;32;33485;-72
2022/06/29 02:54:07;;;;;;;4.40;3.28;;;;;;;23.02;64.59;99703.19;4407269;32;34062;-71
2022/06/29 02:56:34;;;;;;;4.32;3.72;;;;;;;22.91;65.01;99699.94;4406950;32;34211;-70
2022/06/29 02:59:02;;;;;;;5.50;3.70;;;;;;;22.76;65.51;99697.75;4406841;32;34115;-73
2022/06/29 03:01:30;;;;;;;4.80;3.67;;;;;;;22.86;65.16;99700.16;4406519;32;33760;-69
2022/06/29 03:03:57;;;;;;;4.35;3.58;;;;;;;23.03;64.70;99702.06;4407115;32;33777;-71
2022/06/29 03:06:25;;;;;;;5.22;4.12;;;;;;;23.12;64.31;99698.09;4393771;32;34240;-75
2022/06/29 03:08:53;;;;;;;5.30;4.45;;;;;;;23.11;64.47;99704.78;4407050;32;34098;-73
2022/06/29 03:11:20;;;;;;;5.03;4.30;;;;;;;22.98;64.86;99700.25;4405367;32;33363;-70
2022/06/29 03:13:47;;;;;;;5.78;4.62;;;;;;;22.63;66.44;99711.44;4406598;32;34740;-70
2022/06/29 03:16:15;;;;;;;4.72;4.15;;;;;;;22.86;65.78;99706.47;4406863;32;34226;-68
2022/06/29 03:18:43;;;;;;;6.72;3.60;;;;;;;22.14;68.61;99713.66;4407241;32;33878;-70
2022/06/29 03:21:11;;;;;;;5.78;4.75;;;;;;;22.48;67.57;99709.22;4405427;32;33200;-70
2022/06/29 03:23:38;;;;;;;4.87;4.05;;;;;;;21.95;69.94;99707.66;4406877;32;33724;-70
2022/06/29 03:26:06;;;;;;;5.87;4.07;;;;;;;22.30;68.67;99700.16;4407055;32;33879;-69
2022/06/29 03:28:33;;;;;;;5.82;3.70;;;;;;;22.29;68.18;99704.88;4407062;32;33804;-69
2022/06/29 03:31:01;;;;;;;4.37;3.55;;;;;;;22.43;67.56;99710.22;4406497;32;34509;-69
2022/06/29 03:33:29;;;;;;;5.43;4.10;;;;;;;22.62;66.75;99707.06;4406792;32;34787;-70
2022/06/29 03:35:56;;;;;;;6.12;4.00;;;;;;;23.22;65.06;99710.75;4406890;32;34225;-71
2022/06/29 03:38:24;;;;;;;5.57;3.53;;;;;;;23.36;64.62;99712.44;4406349;32;34036;-70
2022/06/29 03:40:51;;;;;;;5.87;3.95;;;;;;;23.40;63.75;99713.41;4400422;32;33515;-69
2022/06/29 03:43:19;;;;;;;5.37;3.97;;;;;;;23.43;62.79;99718.25;4406985;32;33552;-70
2022/06/29 03:45:46;;;;;;;4.40;3.35;;;;;;;23.78;62.43;99712.47;4406716;32;34206;-70
2022/06/29 03:48:15;;;;;;;4.15;3.40;;;;;;;24.15;60.99;99719.84;4407710;32;34827;-69
2022/06/29 03:50:43;;;;;;;5.40;3.62;;;;;;;23.92;61.08;99722.16;4402879;32;33702;-71
2022/06/29 03:53:11;;;;;;;4.68;3.42;;;;;;;24.16;60.46;99724.22;4404019;32;34150;-69
2022/06/29 03:55:38;;;;;;;5.07;3.33;;;;;;;24.21;59.37;99714.06;4405062;32;34992;-68
2022/06/29 03:58:05;;;;;;;4.85;4.00;;;;;;;24.20;59.70;99718.81;4418770;32;34809;-73
2022/06/29 04:00:33;;;;;;;4.57;3.62;;;;;;;24.28;58.77;99709.59;4406877;32;34352;-71
2022/06/29 04:03:01;;;;;;;5.82;3.92;;;;;;;24.56;57.52;99711.78;4408346;32;33868;-70
2022/06/29 04:05:28;;;;;;;5.95;3.60;;;;;;;24.64;57.42;99704.50;4407278;32;34269;-69
2022/06/29 04:07:56;;;;;;;5.22;3.80;;;;;;;24.63;57.30;99706.47;4406332;32;34763;-69
2022/06/29 04:10:24;;;;;;;6.25;4.00;;;;;;;24.71;57.54;99708.34;4404774;32;35569;-69
2022/06/29 04:12:51;;;;;;;6.07;4.10;;;;;;;24.80;56.52;99707.44;4405088;32;33628;-69
2022/06/29 04:15:18;;;;;;;5.15;3.75;;;;;;;24.98;56.51;99711.59;4406946;32;34154;-69
2022/06/29 04:17:46;;;;;;;5.65;3.97;;;;;;;25.49;54.90;99716.78;4407064;32;34620;-69
2022/06/29 04:21:05;;;;;;;4.35;3.95;;;;;;;25.51;54.51;99715.28;4405758;32;33191;-72
2022/06/29 04:23:02;;;;;;;5.03;4.07;;;;;;;25.27;55.06;99712.53;4398078;32;33745;-72
2022/06/29 04:25:30;;;;;;;5.90;4.45;;;;;;;25.78;53.53;99719.25;4406712;32;34260;-72
2022/06/29 04:27:57;;;;;;;4.85;4.10;;;;;;;25.39;54.38;99720.84;4416570;32;33733;-72
2022/06/29 04:30:25;;;;;;;4.85;3.53;;;;;;;25.44;54.36;99717.03;4399790;32;34288;-72
2022/06/29 04:32:52;;;;;;;6.35;4.03;;;;;;;25.85;53.56;99723.41;4408767;32;33701;-74
2022/06/29 04:35:21;;;;;;;5.78;4.12;;;;;;;26.01;52.53;99718.75;4406908;32;34308;-70
2022/06/29 04:37:48;;;;;;;5.97;4.55;;;;;;;26.02;52.63;99723.16;4401181;32;33787;-73
2022/06/29 04:40:16;;;;;;;6.65;4.35;;;;;;;25.75;53.03;99719.97;4410054;32;33339;-71
2022/06/29 04:42:43;;;;;;;5.43;4.03;;;;;;;26.08;52.17;99721.72;4396203;32;33358;-72
2022/06/29 04:46:19;;;;;;;6.47;4.85;;;;;;;26.33;51.83;99721.63;4415251;32;34646;-68
2022/06/29 04:48:02;;;;;;;4.90;4.10;;;;;;;26.27;52.67;99723.06;4422473;32;34215;-71
2022/06/29 04:50:30;;;;;;;5.78;4.30;;;;;;;26.08;52.77;99721.72;4423114;32;33141;-69
2022/06/29 04:52:57;;;;;;;7.47;4.50;;;;;;;26.19;52.34;99725.63;4408972;32;34661;-71
2022/06/29 04:55:26;;;;;;;6.43;4.05;;;;;;;26.54;51.31;99727.78;4402291;32;34431;-68
2022/06/29 04:57:53;;;;;;;6.78;3.90;;;;;;;26.86;51.51;99727.00;4405881;32;33781;-69
2022/06/29 05:00:21;;;;;;;7.00;4.47;;;;;;;26.97;49.80;99730.84;4405831;32;33146;-69
2022/06/29 05:02:49;;;;;;;5.68;4.12;;;;;;;26.80;49.57;99730.06;4410675;32;34202;-68
2022/06/29 05:05:16;;;;;;;4.95;4.03;;;;;;;27.04;49.83;99731.06;4401015;32;82977;-69
2022/06/29 05:07:44;;;;;;;4.62;4.05;;;;;;;26.94;50.99;99726.03;4407040;32;33830;-69
2022/06/29 05:10:11;;;;;;;5.10;3.97;;;;;;;27.02;49.84;99730.59;4407154;32;33117;-72
2022/06/29 05:12:39;;;;;;;5.95;3.95;;;;;;;27.15;50.15;99725.75;4407691;32;33233;-70
2022/06/29 05:15:08;;;;;;;5.05;3.85;;;;;;;27.06;48.80;99725.91;4405711;32;34217;-71
2022/06/29 05:17:39;;;;;;;5.22;3.85;;;;;;;27.45;48.23;99722.47;4418353;32;33657;-70
2022/06/29 05:20:09;;;;;;;7.93;4.18;;;;;;;27.50;48.11;99730.56;4407292;32;33130;-70
2022/06/29 05:22:36;;;;;;;5.30;4.18;;;;;;;27.51;48.21;99734.94;4415211;32;33641;-74
2022/06/29 05:25:04;;;;;;;4.65;3.90;;;;;;;27.24;48.55;99743.09;4407367;32;33428;-70
2022/06/29 05:27:32;;;;;;;4.57;3.97;;;;;;;27.40;48.21;99737.50;4411711;32;34262;-76
2022/06/29 05:29:59;;;;;;;5.82;4.22;;;;;;;27.28;48.59;99740.38;4407387;32;34558;-71
2022/06/29 05:32:27;;;;;;;6.87;3.92;;;;;;;27.49;48.00;99732.53;4417247;32;33865;-68
2022/06/29 05:34:54;;;;;;;5.62;3.90;;;;;;;27.40;48.81;99737.50;4421377;32;35004;-70
2022/06/29 05:37:22;;;;;;;5.40;4.07;;;;;;;27.64;48.24;99727.28;4399744;32;34654;-72
2022/06/29 05:39:50;;;;;;;6.25;3.97;;;;;;;27.76;47.65;99724.38;4407455;32;33243;-70
2022/06/29 05:42:18;;;;;;;5.22;3.65;;;;;;;27.06;48.88;99737.03;4407509;32;33829;-70
2022/06/29 05:44:46;;;;;;;4.70;3.58;;;;;;;28.14;46.47;99722.78;4418208;32;34205;-68
2022/06/29 05:47:14;;;;;;;8.10;4.32;;;;;;;27.95;45.85;99713.25;4405203;32;34116;-70
2022/06/29 05:49:43;;;;;;;4.90;3.83;;;;;;;27.55;47.33;99707.97;4405748;32;33534;-72
2022/06/29 05:52:11;;;;;;;5.78;4.07;;;;;;;27.14;49.37;99712.97;4406784;32;34150;-70
2022/06/29 05:54:38;;;;;;;8.00;4.07;;;;;;;27.78;46.88;99720.03;4407302;32;34697;-71
2022/06/29 05:57:06;;;;;;;5.10;3.87;;;;;;;27.95;47.10;99715.25;4407373;32;34032;-70
2022/06/29 05:59:34;;;;;;;4.57;3.67;;;;;;;28.27;45.56;99709.47;4409775;32;33402;-72
2022/06/29 06:02:02;;;;;;;5.53;4.05;;;;;;;27.68;46.69;99714.22;4409058;32;34842;-75
2022/06/29 06:04:31;;;;;;;6.10;3.72;;;;;;;28.31;46.01;99710.34;4408531;32;34154;-74
2022/06/29 06:06:58;;;;;;;9.05;3.97;;;;;;;27.93;46.64;99706.44;4407899;32;33964;-71
2022/06/29 06:09:27;;;;;;;4.82;3.80;;;;;;;27.61;48.39;99706.53;4408432;32;34426;-70
2022/06/29 06:11:55;;;;;;;6.03;4.12;;;;;;;27.86;47.18;99707.06;4407852;32;34034;-73
2022/06/29 06:14:22;;;;;;;7.75;4.40;;;;;;;28.39;46.97;99703.72;4417388;32;34176;-76
2022/06/29 06:16:50;;;;;;;5.55;4.07;;;;;;;28.30;46.56;99701.19;4423246;32;34190;-73
2022/06/29 06:19:18;;;;;;;6.90;3.62;;;;;;;28.59;44.39;99698.94;4411664;32;34291;-73
2022/06/29 06:21:45;;;;;;;6.82;4.35;;;;;;;28.36;46.70;99710.06;4408191;32;33711;-73
2022/06/29 06:24:13;;;;;;;6.10;4.30;;;;;;;29.12;43.76;99699.03;4412855;32;34031;-76
2022/06/29 06:26:40;;;;;;;7.22;4.10;;;;;;;29.00;44.51;99702.81;4423479;32;34739;-75
2022/06/29 06:29:08;;;;;;;5.47;3.80;;;;;;;29.36;43.68;99706.19;4423219;32;33969;-86
2022/06/29 06:31:36;;;;;;;7.18;3.83;;;;;;;29.68;42.89;99707.81;4423194;32;34764;-72
2022/06/29 06:34:04;;;;;;;8.18;4.25;;;;;;;29.27;43.34;99705.66;4423760;32;34296;-72
2022/06/29 06:36:31;;;;;;;7.37;3.72;;;;;;;29.39;43.09;99707.41;4419963;32;33938;-72
2022/06/29 06:38:59;;;;;;;6.90;4.45;;;;;;;29.41;43.54;99705.06;4422945;32;34316;-69
2022/06/29 06:41:26;;;;;;;5.47;4.20;;;;;;;28.59;45.41;99710.09;4422186;32;33971;-70
2022/06/29 06:43:55;;;;;;;5.57;4.18;;;;;;;29.17;43.77;99709.09;4412385;32;34082;-72
2022/06/29 06:46:24;;;;;;;6.12;4.40;;;;;;;29.20;43.81;99702.75;4419902;32;34905;-73
2022/06/29 06:48:52;;;;;;;4.95;4.00;;;;;;;29.10;43.59;99690.22;4421536;32;34171;-72
2022/06/29 06:51:21;;;;;;;7.57;4.00;;;;;;;29.32;45.19;99687.75;4415989;32;33971;-78
2022/06/29 06:53:49;;;;;;;8.10;4.30;;;;;;;29.63;42.89;99689.37;4422307;32;34405;-72
2022/06/29 06:56:17;;;;;;;6.10;3.97;;;;;;;29.36;43.39;99691.41;4422456;32;33974;-73
2022/06/29 06:58:45;;;;;;;7.37;4.10;;;;;;;29.50;43.47;99690.81;4423393;32;34227;-76
2022/06/29 07:01:21;;;;;;;9.10;3.78;;;;;;;29.77;42.24;99691.59;4409573;32;33512;-71
2022/06/29 07:03:49;;;;;;;6.53;4.10;;;;;;;30.06;41.91;99689.94;4381855;32;35083;-76
2022/06/29 07:06:17;;;;;;;6.85;4.53;;;;;;;29.90;42.44;99680.97;4394145;32;34924;-71
2022/06/29 07:08:45;;;;;;;4.62;3.60;;;;;;;30.22;41.51;99684.94;4390755;32;33700;-71
2022/06/29 07:11:13;;;;;;;5.87;4.12;;;;;;;30.13;42.65;99686.41;4391977;32;33853;-72
2022/06/29 07:13:40;;;;;;;6.75;4.20;;;;;;;30.61;40.24;99680.94;4391556;32;34279;-71
2022/06/29 07:16:08;;;;;;;4.65;3.55;;;;;;;30.35;41.76;99679.91;4390546;32;33891;-72
2022/06/29 07:18:36;;;;;;;5.60;3.87;;;;;;;30.16;41.36;99675.25;4391900;32;33196;-71
2022/06/29 07:21:03;;;;;;;5.32;4.30;;;;;;;30.37;42.52;99677.50;4391498;32;34589;-72
2022/06/29 07:23:31;;;;;;;7.47;3.40;;;;;;;30.98;40.91;99671.66;4391847;32;34275;-70
2022/06/29 07:25:59;;;;;;;6.37;3.58;;;;;;;30.92;40.49;99670.41;4391614;32;33349;-69
2022/06/29 07:28:26;;;;;;;7.75;3.90;;;;;;;31.30;38.74;99677.47;4392058;32;34165;-70
2022/06/29 07:30:54;;;;;;;5.43;3.97;;;;;;;30.97;39.41;99667.25;4391350;32;33655;-71
2022/06/29 07:33:21;;;;;;;5.30;3.83;;;;;;;31.72;38.78;99673.31;4391856;32;33959;-70
2022/06/29 07:35:49;;;;;;;5.03;3.75;;;;;;;31.33;40.41;99673.09;4416183;32;34582;-75
2022/06/29 07:38:18;;;;;;;4.85;3.60;;;;;;;31.30;39.14;99676.66;4421823;32;33031;-72
2022/06/29 07:40:45;;;;;;;5.12;3.55;;;;;;;31.37;39.83;99679.53;4421876;32;33581;-70
2022/06/29 07:43:13;;;;;;;4.18;3.15;;;;;;;31.84;38.51;99672.97;4421881;32;34465;-69
2022/06/29 07:45:41;;;;;;;6.37;3.80;;;;;;;31.47;39.53;99670.41;4421752;32;34599;-70
2022/06/29 07:48:08;;;;;;;8.75;3.85;;;;;;;31.27;40.12;99667.88;4421830;32;33489;-72
2022/06/29 07:50:36;;;;;;;6.90;3.90;;;;;;;30.95;39.77;99669.62;4419499;32;34061;-74
2022/06/29 07:53:04;;;;;;;5.53;4.07;;;;;;;30.70;40.73;99664.59;4421053;32;34080;-75
2022/06/29 07:55:31;;;;;;;5.90;3.97;;;;;;;30.90;41.43;99675.59;4421388;32;34162;-75
2022/06/29 07:57:59;;;;;;;4.78;3.67;;;;;;;31.11;38.90;99675.75;4421538;32;33890;-76
2022/06/29 08:00:26;;;;;;;5.30;3.85;;;;;;;30.32;41.78;99674.25;4419558;32;35214;-70
2022/06/29 08:02:54;;;;;;;5.68;4.00;;;;;;;30.91;40.33;99675.22;4421564;32;34899;-72
2022/06/29 08:05:23;;;;;;;5.53;4.07;;;;;;;31.39;39.56;99666.72;4421145;32;34003;-73
2022/06/29 08:07:51;;;;;;;6.80;3.70;;;;;;;31.23;39.44;99663.41;4421447;32;33492;-73
2022/06/29 08:10:19;;;;;;;5.12;3.00;;;;;;;31.52;38.96;99656.00;4421401;32;34666;-70
2022/06/29 08:12:46;;;;;;;8.05;3.75;;;;;;;31.34;38.22;99664.28;4421320;32;33903;-76
2022/06/29 08:15:16;;;;;;;4.80;3.80;;;;;;;31.80;36.85;99660.13;4421238;32;34786;-71
2022/06/29 08:17:44;;;;;;;5.25;3.90;;;;;;;31.71;37.50;99666.09;4421753;32;33706;-69
2022/06/29 08:20:12;;;;;;;6.03;3.78;;;;;;;31.67;37.59;99668.09;4418215;32;34636;-78
2022/06/29 08:22:40;;;;;;;5.82;3.55;;;;;;;31.73;35.77;99668.50;4406092;32;34192;-71
2022/06/29 08:25:08;;;;;;;5.15;3.70;;;;;;;31.46;37.82;99660.38;4407209;32;33952;-75
2022/06/29 08:27:35;;;;;;;7.28;3.75;;;;;;;31.51;38.65;99676.81;4407094;32;34417;-73
2022/06/29 08:30:13;;;;;;;5.28;3.83;;;;;;;31.04;39.29;99665.31;4406964;32;33814;-71
2022/06/29 08:32:42;;;;;;;5.35;4.00;;;;;;;31.64;37.52;99663.25;4406876;32;34208;-72
2022/06/29 08:35:12;;;;;;;7.03;3.60;;;;;;;32.08;36.95;99660.22;4405347;32;33618;-74
2022/06/29 08:37:40;;;;;;;4.45;3.42;;;;;;;32.03;36.53;99646.59;4406351;32;33348;-72
2022/06/29 08:40:09;;;;;;;7.70;3.62;;;;;;;31.99;38.17;99645.00;4407260;32;34580;-77
2022/06/29 08:42:37;;;;;;;4.75;3.45;;;;;;;32.17;35.22;99651.44;4418738;32;34168;-72
2022/06/29 08:45:06;;;;;;;6.22;3.30;;;;;;;32.24;35.91;99642.22;4407236;32;34232;-76
2022/06/29 09:20:41;;;;;;;4.93;2.87;;;;;;;33.21;31.24;99640.22;4373992;32;35954;-70
2022/06/29 09:23:13;;;;;;;7.05;2.70;;;;;;;33.41;31.63;99632.12;4363915;32;34694;-69
2022/06/29 09:25:42;;;;;;;4.85;2.65;;;;;;;33.83;31.73;99630.38;4354955;32;32796;-69
2022/06/29 09:28:31;;;;;;;5.45;2.95;;;;;;;33.94;30.61;99635.94;4374958;32;33971;-69
2022/06/29 09:30:59;;;;;;;5.20;2.55;;;;;;;33.72;30.83;99629.63;4378734;32;34879;-71
2022/06/29 09:33:29;;;;;;;3.85;2.85;;;;;;;33.41;32.08;99646.19;4377873;32;33906;-70
2022/06/29 09:36:16;;;;;;;5.93;3.20;;;;;;;33.44;32.08;99633.34;4378700;32;34311;-68
2022/06/29 09:38:44;;;;;;;4.60;3.10;;;;;;;33.53;31.60;99627.28;4378619;32;33850;-70
2022/06/29 09:41:14;;;;;;;4.20;2.50;;;;;;;33.55;31.06;99631.28;4390170;32;34209;-69
2022/06/29 09:43:43;;;;;;;4.03;2.60;;;;;;;32.84;32.91;99633.03;4378994;32;34128;-75
2022/06/29 09:46:13;;;;;;;5.80;2.80;;;;;;;33.00;31.34;99618.56;4377526;32;33715;-69
2022/06/29 09:48:42;;;;;;;5.62;3.08;;;;;;;33.25;32.23;99626.97;4378622;32;34725;-69
2022/06/29 09:54:10;;;;;;;4.40;2.97;;;;;;;33.99;30.16;99623.44;4377554;32;33883;-69
2022/06/29 09:56:47;;;;;;;4.12;2.80;;;;;;;33.35;31.58;99602.84;4377525;32;33161;-71
2022/06/29 10:02:39;;;;;;;8.23;3.22;;;;;;;33.24;30.73;99605.69;4369262;32;34968;-72
2022/06/29 10:05:10;;;;;;;3.65;2.90;;;;;;;33.18;31.37;99598.88;4378622;32;34585;-71
2022/06/29 10:07:40;;;;;;;6.05;3.00;;;;;;;33.68;31.70;99606.34;4377337;32;34294;-73
2022/06/29 10:10:16;;;;;;;4.50;3.00;;;;;;;34.13;30.22;99605.69;4376926;32;34629;-75
2022/06/29 10:15:57;;;;;;;2.97;2.15;;;;;;;34.13;28.21;99597.25;4378648;32;33920;-72
2022/06/29 10:18:34;;;;;;;3.22;2.12;;;;;;;34.26;29.97;99590.72;4378319;32;34304;-72
2022/06/29 10:21:02;;;;;;;3.30;2.28;;;;;;;34.52;27.75;99583.66;4377256;32;33807;-71
2022/06/29 10:23:47;;;;;;;5.10;2.47;;;;;;;34.59;28.79;99584.81;4364501;32;35114;-74
2022/06/29 10:26:35;;;;;;;4.47;2.25;;;;;;;34.58;26.71;99584.03;4376357;32;33997;-70
2022/06/29 10:29:05;;;;;;;3.35;2.40;;;;;;;34.26;27.46;99587.91;4378259;32;33420;-72
2022/06/29 10:34:38;;;;;;;2.85;2.50;;;;;;;34.62;27.17;99567.06;4377568;32;34907;-75
2022/06/29 10:37:11;;;;;;;3.35;2.60;;;;;;;34.88;26.38;99574.06;4363627;32;33519;-70
2022/06/29 10:39:44;;;;;;;4.82;2.35;;;;;;;34.75;27.55;99570.97;4377323;32;33535;-74
2022/06/29 10:45:21;;;;;;;4.15;2.90;;;;;;;34.96;27.42;99569.16;4377836;32;34176;-73
2022/06/29 10:47:54;;;;;;;3.50;2.60;;;;;;;34.86;28.15;99563.25;4376787;32;35074;-75
2022/06/29 10:50:25;;;;;;;6.03;3.40;;;;;;;34.35;28.20;99558.47;4378178;32;34494;-73
2022/06/29 10:53:03;;;;;;;5.22;2.72;;;;;;;34.76;27.86;99552.06;4376804;32;34091;-73
2022/06/29 10:55:33;;;;;;;5.65;2.83;;;;;;;34.62;27.14;99555.78;4376871;32;34408;-73
2022/06/29 10:58:02;;;;;;;4.70;2.62;;;;;;;35.01;29.00;99560.25;4376997;32;33951;-73
2022/06/29 11:00:32;;;;;;;4.25;2.87;;;;;;;35.05;27.14;99556.16;4364497;32;32810;-73
2022/06/29 11:03:09;;;;;;;4.07;2.72;;;;;;;34.84;27.14;99548.75;4364563;32;34605;-75
2022/06/29 11:12:01;;;;;;;4.80;3.30;;;;;;;35.04;27.24;99548.94;4364619;32;34100;-75
2022/06/29 11:14:00;;;;;;;3.97;3.00;;;;;;;34.98;27.22;99542.16;4377794;32;34353;-71
2022/06/29 11:16:29;;;;;;;3.58;2.50;;;;;;;35.03;27.30;99538.06;4377731;32;34155;-74
2022/06/29 11:18:57;;;;;;;3.25;2.50;;;;;;;35.41;27.04;99523.94;4376720;32;34179;-74
2022/06/29 11:21:28;;;;;;;4.05;2.58;;;;;;;35.21;27.07;99521.78;4364175;32;33442;-72
2022/06/29 11:23:57;;;;;;;3.72;2.62;;;;;;;35.29;27.20;99508.38;4377957;32;33894;-73
2022/06/29 11:26:27;;;;;;;3.85;2.80;;;;;;;35.58;26.22;99514.41;4377857;32;34327;-73
2022/06/29 11:28:57;;;;;;;4.22;2.90;;;;;;;35.63;27.33;99513.13;4376042;32;34054;-68
2022/06/29 11:31:25;;;;;;;4.53;2.67;;;;;;;34.91;26.85;99503.56;4376637;32;33714;-72
2022/06/29 11:34:13;;;;;;;5.57;2.78;;;;;;;35.39;27.04;99498.16;4376490;32;33880;-71
2022/06/29 11:36:41;;;;;;;7.53;2.65;;;;;;;34.76;27.10;99499.31;4362355;32;34200;-75
2022/06/29 11:39:09;;;;;;;3.05;2.50;;;;;;;34.96;26.47;99491.03;4376295;32;34380;-73
2022/06/29 11:44:28;;;;;;;3.53;2.40;;;;;;;35.09;25.52;99489.25;4374828;32;33270;-73
2022/06/29 11:46:56;;;;;;;3.30;2.60;;;;;;;35.04;25.74;99486.12;4363252;32;34949;-71
2022/06/29 11:49:38;;;;;;;3.60;2.60;;;;;;;34.93;26.53;99486.25;4363234;32;34601;-72
2022/06/29 11:52:08;;;;;;;3.25;2.30;;;;;;;35.29;24.47;99485.78;4376385;32;34232;-71
2022/06/29 11:54:47;;;;;;;2.92;2.37;;;;;;;35.26;23.76;99473.34;4362340;32;34536;-72
2022/06/29 11:57:17;;;;;;;3.80;2.65;;;;;;;35.30;24.75;99478.94;4362563;32;33578;-71
2022/06/29 11:59:47;;;;;;;4.45;2.60;;;;;;;35.42;25.70;99469.09;4374965;32;34411;-72
2022/06/29 12:02:15;;;;;;;5.28;2.50;;;;;;;35.26;25.34;99472.56;4375039;32;33470;-72
2022/06/29 12:04:45;;;;;;;3.47;2.25;;;;;;;35.66;25.02;99465.16;4355098;32;34379;-71
2022/06/29 12:07:16;;;;;;;3.10;2.37;;;;;;;36.01;24.15;99474.25;4375368;32;34835;-71
2022/06/29 12:09:48;;;;;;;2.97;2.35;;;;;;;35.42;24.06;99466.28;4359718;32;34134;-70
2022/06/29 12:12:17;;;;;;;4.57;2.42;;;;;;;35.91;25.08;99459.09;4374010;32;33623;-71
2022/06/29 12:14:45;;;;;;;4.32;2.42;;;;;;;36.06;25.10;99453.19;4359787;32;33947;-71
2022/06/29 12:17:13;;;;;;;3.12;2.50;;;;;;;36.36;25.37;99445.84;4373639;32;34400;-72
2022/06/29 12:19:44;;;;;;;2.75;2.20;;;;;;;36.55;24.59;99445.84;4359252;32;34447;-72
2022/06/29 12:22:12;;;;;;;6.12;2.50;;;;;;;36.30;24.08;99437.06;4374844;32;33729;-71
2022/06/29 12:24:40;;;;;;;4.65;2.85;;;;;;;36.45;24.96;99441.19;4375991;32;33560;-75
2022/06/29 12:27:07;;;;;;;2.97;2.40;;;;;;;36.65;24.10;99434.78;4375605;32;33912;-73
2022/06/29 12:29:35;;;;;;;2.65;2.37;;;;;;;36.07;24.27;99447.13;4375040;32;33782;-72
2022/06/29 12:32:02;;;;;;;4.28;2.45;;;;;;;36.26;22.88;99439.94;4375860;32;34390;-71
2022/06/29 12:34:30;;;;;;;4.22;2.45;;;;;;;36.20;23.78;99435.22;4375715;32;34669;-65
2022/06/29 12:37:00;;;;;;;2.80;2.37;;;;;;;36.38;25.08;99432.88;4375551;32;34947;-65
2022/06/29 12:39:27;;;;;;;2.35;2.00;;;;;;;36.19;23.37;99425.97;4375515;32;34282;-66
2022/06/29 12:41:54;;;;;;;3.00;2.20;;;;;;;36.16;23.59;99418.38;4371822;32;34262;-64
2022/06/29 12:44:22;;;;;;;3.00;2.30;;;;;;;36.59;22.84;99413.87;4386439;32;34027;-66